createdAt,value
2023-03-16T06:02:58.926Z,101476.91
2023-03-16T06:05:29.717Z,101479.25
2023-03-16T06:08:06.644Z,101470.75
2023-03-16T06:10:36.882Z,101477.00
2023-03-16T06:13:13.619Z,101480.41
2023-03-16T06:15:44.234Z,101474.97
2023-03-16T06:18:23.606Z,101478.50
2023-03-16T06:20:53.832Z,101468.84
2023-03-16T06:23:30.642Z,101477.28
2023-03-16T06:26:07.621Z,101465.84
2023-03-16T06:28:37.784Z,101470.41
2023-03-16T06:31:14.730Z,101465.84
2023-03-16T06:33:47.479Z,101465.50
2023-03-16T06:36:24.641Z,101462.84
2023-03-16T06:38:54.772Z,101460.34
2023-03-16T06:41:31.659Z,101453.75
2023-03-16T06:44:01.806Z,101452.03
2023-03-16T06:46:39.679Z,101453.94
2023-03-16T06:49:12.315Z,101451.19
2023-03-16T06:51:48.620Z,101456.00
2023-03-16T06:54:18.849Z,101443.75
2023-03-16T06:56:55.783Z,101441.44
2023-03-16T06:59:34.669Z,101450.63
2023-03-16T07:02:05.109Z,101443.06
2023-03-16T07:04:44.678Z,101444.34
2023-03-16T07:07:15.371Z,101440.31
2023-03-16T07:09:51.626Z,101443.91
2023-03-16T07:12:28.698Z,101447.34
2023-03-16T07:14:58.762Z,101444.09
2023-03-16T07:17:35.798Z,101434.22
2023-03-16T07:20:10.960Z,101435.72
2023-03-16T07:22:48.674Z,101432.53
2023-03-16T07:25:25.809Z,101427.72
2023-03-16T07:27:55.954Z,101439.28
2023-03-16T07:30:32.681Z,101436.19
2023-03-16T07:33:09.869Z,101438.84
2023-03-16T07:35:42.646Z,101438.22
2023-03-16T07:38:19.765Z,101431.84
2023-03-16T07:40:49.842Z,101432.13
2023-03-16T07:43:26.703Z,101439.13
2023-03-16T07:45:57.218Z,101426.09
2023-03-16T07:48:33.748Z,101436.22
2023-03-16T07:51:06.567Z,101428.59
2023-03-16T07:53:43.748Z,101427.28
2023-03-16T07:56:13.926Z,101432.25
2023-03-16T07:58:50.764Z,101427.38
2023-03-16T08:01:27.742Z,101422.41
2023-03-16T08:03:57.819Z,101423.91
2023-03-16T08:06:37.773Z,101427.50
2023-03-16T08:09:14.764Z,101415.97
2023-03-16T08:11:44.947Z,101420.06
2023-03-16T08:14:21.753Z,101425.16
2023-03-16T08:16:52.049Z,101426.00
2023-03-16T08:19:28.793Z,101430.25
2023-03-16T08:22:08.748Z,101435.31
2023-03-16T08:24:39.052Z,101440.63
2023-03-16T08:27:15.781Z,101432.44
2023-03-16T08:29:45.867Z,101432.44
2023-03-16T08:32:22.764Z,101426.44
2023-03-16T08:35:00.799Z,101431.88
2023-03-16T08:37:35.409Z,101429.56
2023-03-16T08:40:16.818Z,101423.66
2023-03-16T08:42:50.181Z,101414.72
2023-03-16T08:45:27.775Z,101418.69
2023-03-16T08:47:57.844Z,101418.91
2023-03-16T08:50:34.836Z,101411.63
2023-03-16T08:53:07.773Z,101414.56
2023-03-16T08:55:47.811Z,101402.44
2023-03-16T08:58:17.988Z,101411.41
2023-03-16T09:00:54.796Z,101411.88
2023-03-16T09:03:25.081Z,101403.91
2023-03-16T09:06:01.874Z,101405.06
2023-03-16T09:08:41.965Z,101407.28
2023-03-16T09:11:15.243Z,101396.84
2023-03-16T09:13:53.247Z,101406.41
2023-03-16T09:16:31.827Z,101396.34
2023-03-16T09:19:02.481Z,101398.91
2023-03-16T09:21:41.024Z,101398.97
2023-03-16T09:24:20.969Z,101408.88
2023-03-16T09:26:51.122Z,101416.53
2023-03-16T09:29:29.103Z,101397.75
2023-03-16T09:31:59.527Z,101392.03
2023-03-16T09:34:35.810Z,101387.41
2023-03-16T09:37:12.876Z,101398.94
2023-03-16T09:39:45.721Z,101395.94
2023-03-16T09:42:29.887Z,101388.75
2023-03-16T09:45:18.662Z,101381.38
2023-03-16T09:47:58.904Z,101380.56
2023-03-16T09:50:47.817Z,101376.22
2023-03-16T09:53:33.823Z,101367.28
2023-03-16T09:56:11.851Z,101366.59
2023-03-16T09:58:49.016Z,101368.69
2023-03-16T10:01:30.884Z,101359.44
2023-03-16T10:04:20.877Z,101365.13
2023-03-16T10:07:08.980Z,101351.69
2023-03-16T10:09:45.988Z,101375.56
2023-03-16T10:12:25.888Z,101360.41
2023-03-16T10:15:00.978Z,101360.28
2023-03-16T10:17:56.944Z,101363.06
2023-03-16T10:20:33.181Z,101356.63
2023-03-16T10:23:17.982Z,101354.63
2023-03-16T10:25:57.864Z,101341.41
2023-03-16T10:28:39.072Z,101340.34
2023-03-16T10:31:09.853Z,101336.22
2023-03-16T10:33:46.933Z,101337.63
2023-03-16T10:36:26.695Z,101337.25
2023-03-16T10:39:06.936Z,101330.91
2023-03-16T10:41:40.444Z,101334.06
2023-03-16T10:44:24.980Z,101332.38
2023-03-16T10:47:04.903Z,101327.31
2023-03-16T10:49:50.962Z,101322.34
2023-03-16T10:52:27.500Z,101324.91
2023-03-16T10:55:07.963Z,101305.72
2023-03-16T10:57:47.937Z,101313.97
2023-03-16T11:00:26.033Z,101313.06
2023-03-16T11:03:06.063Z,101312.91
2023-03-16T11:05:38.410Z,101319.56
2023-03-16T11:08:23.211Z,101304.31
2023-03-16T11:11:01.179Z,101298.50
2023-03-16T11:13:44.021Z,101291.84
2023-03-16T11:16:30.773Z,101282.78
2023-03-16T11:19:12.959Z,101285.66
2023-03-16T11:21:50.998Z,101276.72
2023-03-16T11:24:35.003Z,101280.00
2023-03-16T11:27:12.866Z,101293.81
2023-03-16T11:30:13.035Z,101284.56
2023-03-16T11:33:00.138Z,101282.53
2023-03-16T11:35:58.463Z,101275.91
2023-03-16T11:38:43.022Z,101286.81
2023-03-16T11:41:16.603Z,101278.94
2023-03-16T11:44:02.059Z,101268.53
2023-03-16T11:46:39.527Z,101279.25
2023-03-16T11:49:42.007Z,101265.38
2023-03-16T11:52:22.903Z,101269.31
2023-03-16T11:55:17.026Z,101266.19
2023-03-16T11:57:59.000Z,101266.56
2023-03-16T12:00:47.066Z,101256.53
2023-03-16T12:03:44.953Z,101257.09
2023-03-16T12:06:40.093Z,101262.28
2023-03-16T12:09:55.053Z,101260.28
2023-03-16T12:12:38.982Z,101254.69
2023-03-16T12:15:39.045Z,101252.03
2023-03-16T12:18:28.057Z,101258.03
2023-03-16T12:21:04.204Z,101249.63
2023-03-16T12:23:48.086Z,101244.47
2023-03-16T12:26:19.087Z,101243.63
2023-03-16T12:28:56.116Z,101237.75
2023-03-16T12:31:40.163Z,101233.91
2023-03-16T12:34:25.962Z,101235.84
2023-03-16T12:37:37.084Z,101223.28
2023-03-16T12:40:25.671Z,101206.88
2023-03-16T12:43:15.277Z,101205.53
2023-03-16T12:45:55.559Z,101188.72
2023-03-16T12:48:42.118Z,101185.34
2023-03-16T12:51:20.110Z,101175.59
2023-03-16T12:53:59.220Z,101173.94
2023-03-16T12:56:42.144Z,101178.44
2023-03-16T12:59:21.149Z,101174.44
2023-03-16T13:02:01.210Z,101164.00
2023-03-16T13:04:36.235Z,101161.19
2023-03-16T13:07:18.149Z,101166.38
2023-03-16T13:09:51.394Z,101162.50
2023-03-16T13:12:39.116Z,101166.03
2023-03-16T13:15:29.632Z,101164.53
2023-03-16T13:18:29.146Z,101155.78
2023-03-16T13:21:03.122Z,101152.75
2023-03-16T13:24:05.165Z,101138.31
2023-03-16T13:26:52.237Z,101141.34
2023-03-16T13:29:34.119Z,101131.59
2023-03-16T13:32:10.209Z,101133.31
2023-03-16T13:34:56.186Z,101124.25
2023-03-16T13:37:27.783Z,101126.94
2023-03-16T13:40:07.199Z,101125.25
2023-03-16T13:42:46.135Z,101129.63
2023-03-16T13:45:22.539Z,101123.25
2023-03-16T13:48:00.134Z,101129.13
2023-03-16T13:50:41.227Z,101122.38
2023-03-16T13:53:19.145Z,101117.00
2023-03-16T13:55:58.222Z,101121.03
2023-03-16T13:58:42.275Z,101120.56
